Time;durP1;ratioP1;P1;durP2;ratioP2;P2;SDS_P1;SDS_P2;PMS_P1;PMS_P2;Temp;Humidity;BMP_temperature;BMP_pressure;BME280_temperature;BME280_humidity;BME280_pressure;Samples;Min_cycle;Max_cycle;Signal;HPM_P1;HPM_P2
2023/08/14 00:00:07;;;;;;;5.05;1.83;;;24.10;90.30;;;;;;5045620;28;20037;-60
2023/08/14 00:02:33;;;;;;;3.40;1.67;;;24.40;90.20;;;;;;5044071;28;20112;-61
2023/08/14 00:04:59;;;;;;;5.03;1.88;;;24.40;90.30;;;;;;5049643;28;20447;-61
2023/08/14 00:07:24;;;;;;;4.07;2.03;;;24.10;90.30;;;;;;5046663;28;20049;-60
2023/08/14 00:09:50;;;;;;;3.92;2.00;;;24.20;90.20;;;;;;5050513;28;20041;-68
2023/08/14 00:12:16;;;;;;;5.88;2.00;;;24.20;90.30;;;;;;5030181;28;20052;-70
2023/08/14 00:14:42;;;;;;;4.97;2.10;;;24.10;90.20;;;;;;5049724;28;20099;-63
2023/08/14 00:17:07;;;;;;;3.95;1.90;;;24.30;90.30;;;;;;5027551;28;20045;-63
2023/08/14 00:19:33;;;;;;;3.60;1.70;;;23.90;90.20;;;;;;5048562;28;20052;-63
2023/08/14 00:21:59;;;;;;;4.65;2.10;;;24.40;90.40;;;;;;5044057;28;20099;-64
2023/08/14 00:24:25;;;;;;;4.70;2.17;;;24.20;90.20;;;;;;5052489;28;20045;-60
2023/08/14 00:26:50;;;;;;;4.50;2.15;;;24.00;90.20;;;;;;5051248;28;20438;-60
2023/08/14 00:29:19;;;;;;;4.13;1.90;;;24.10;90.20;;;;;;5049588;28;20036;-73
2023/08/14 00:31:45;;;;;;;4.80;1.95;;;24.10;89.60;;;;;;5063204;28;20120;-66
2023/08/14 00:34:10;;;;;;;3.25;1.70;;;24.10;90.30;;;;;;5045599;28;20124;-65
2023/08/14 00:36:36;;;;;;;5.07;2.30;;;24.40;90.30;;;;;;5034056;28;20052;-63
2023/08/14 00:39:03;;;;;;;4.65;2.00;;;24.10;90.20;;;;;;5023144;28;20045;-69
2023/08/14 00:41:28;;;;;;;4.20;1.90;;;24.30;90.20;;;;;;5051146;28;20044;-67
2023/08/14 00:43:54;;;;;;;4.95;2.20;;;24.00;90.10;;;;;;5043443;28;20551;-64
2023/08/14 00:46:20;;;;;;;4.15;2.20;;;24.10;90.20;;;;;;5050847;28;20044;-67
2023/08/14 00:48:46;;;;;;;3.75;1.90;;;24.00;90.20;;;;;;5029894;28;20114;-65
2023/08/14 00:51:11;;;;;;;3.83;1.60;;;24.00;90.10;;;;;;5064881;28;20052;-64
2023/08/14 00:53:37;;;;;;;4.50;1.75;;;24.00;91.60;;;;;;5027529;28;20037;-63
2023/08/14 00:56:03;;;;;;;4.35;1.98;;;23.90;90.10;;;;;;5049602;28;20511;-61
2023/08/14 00:58:29;;;;;;;4.20;1.90;;;24.00;90.10;;;;;;5055318;28;20130;-63
2023/08/14 01:00:54;;;;;;;5.90;2.10;;;24.20;90.20;;;;;;5035552;28;20402;-64
2023/08/14 01:03:20;;;;;;;3.00;1.73;;;23.90;90.10;;;;;;4998359;28;20076;-66
2023/08/14 01:05:46;;;;;;;5.07;1.98;;;24.10;90.20;;;;;;5032820;28;20072;-63
2023/08/14 01:08:12;;;;;;;5.10;1.83;;;23.90;90.10;;;;;;5044174;28;20052;-62
2023/08/14 01:10:52;;;;;;;4.70;1.90;;;24.10;91.70;;;;;;5071675;28;20131;-66
2023/08/14 01:13:59;;;;;;;7.95;2.00;;;24.20;90.00;;;;;;5049782;28;20430;-65
2023/08/14 01:16:27;;;;;;;4.95;1.83;;;24.00;91.70;;;;;;5026310;28;20045;-68
2023/08/14 01:18:53;;;;;;;3.17;1.65;;;23.90;90.20;;;;;;5028763;28;20061;-63
2023/08/14 01:21:30;;;;;;;3.10;1.55;;;23.90;90.10;;;;;;5015625;28;20141;-62
2023/08/14 01:24:18;;;;;;;4.85;1.92;;;24.10;90.30;;;;;;5009633;28;20509;-66
2023/08/14 01:26:43;;;;;;;4.75;2.03;;;24.00;89.30;;;;;;5012730;28;20045;-61
2023/08/14 01:29:09;;;;;;;4.43;1.80;;;23.90;90.10;;;;;;5010532;28;20049;-66
2023/08/14 01:31:35;;;;;;;5.32;2.03;;;24.00;90.10;;;;;;5011801;28;20557;-61
2023/08/14 01:34:00;;;;;;;4.18;1.90;;;23.90;90.10;;;;;;5031356;28;20583;-73
2023/08/14 01:36:38;;;;;;;2.97;1.77;;;23.90;90.00;;;;;;5014563;28;20060;-71
2023/08/14 01:39:08;;;;;;;4.28;2.03;;;24.00;90.30;;;;;;5015616;28;20061;-70
2023/08/14 01:41:41;;;;;;;4.07;1.80;;;23.50;91.40;;;;;;5029548;28;20071;-70
2023/08/14 01:44:08;;;;;;;5.93;2.00;;;24.00;89.10;;;;;;5027694;28;20041;-66
2023/08/14 01:46:34;;;;;;;5.05;1.88;;;24.00;90.10;;;;;;5018949;28;20506;-68
2023/08/14 01:49:00;;;;;;;5.50;2.10;;;24.00;90.10;;;;;;5050915;28;20055;-68
2023/08/14 01:51:25;;;;;;;6.47;1.90;;;24.00;90.00;;;;;;5034709;28;20120;-72
2023/08/14 01:53:51;;;;;;;4.03;2.00;;;24.10;90.10;;;;;;5052707;28;20044;-66
2023/08/14 01:56:17;;;;;;;3.28;1.95;;;24.00;90.00;;;;;;5034573;28;20491;-67
2023/08/14 01:58:43;;;;;;;5.20;1.92;;;23.80;90.00;;;;;;5055191;28;20071;-69
2023/08/14 02:01:08;;;;;;;3.97;2.00;;;23.70;90.00;;;;;;5063989;28;20040;-62
2023/08/14 02:03:34;;;;;;;4.38;1.70;;;23.90;90.00;;;;;;5051767;28;20525;-64
2023/08/14 02:06:00;;;;;;;3.55;1.98;;;24.00;90.00;;;;;;5052134;28;20041;-68
2023/08/14 02:08:25;;;;;;;3.85;1.90;;;23.60;91.40;;;;;;5048538;28;20517;-73
2023/08/14 02:10:51;;;;;;;3.85;1.60;;;24.00;89.90;;;;;;5051807;28;20080;-66
2023/08/14 02:13:17;;;;;;;4.45;1.80;;;24.00;89.90;;;;;;5049530;28;20041;-72
2023/08/14 02:15:46;;;;;;;3.85;1.80;;;23.70;89.90;;;;;;5049437;28;20112;-73
2023/08/14 02:18:13;;;;;;;3.17;1.55;;;23.80;90.00;;;;;;5040940;28;20045;-72
2023/08/14 02:20:46;;;;;;;4.22;1.85;;;23.90;90.10;;;;;;5053419;28;20124;-70
2023/08/14 02:23:11;;;;;;;5.00;1.75;;;23.80;90.20;;;;;;5052326;28;20084;-72
2023/08/14 02:25:43;;;;;;;3.67;1.90;;;23.90;90.00;;;;;;5053446;28;20061;-67
2023/08/14 02:28:09;;;;;;;3.78;1.60;;;24.00;90.00;;;;;;5033088;28;20049;-72
2023/08/14 02:30:41;;;;;;;4.32;1.70;;;23.70;90.00;;;;;;5050542;28;20052;-66
2023/08/14 02:33:06;;;;;;;3.67;1.77;;;23.90;90.10;;;;;;5047002;28;20033;-65
2023/08/14 02:35:34;;;;;;;3.20;1.60;;;23.90;90.00;;;;;;5048688;28;20399;-66
2023/08/14 02:38:01;;;;;;;4.03;1.80;;;23.80;90.00;;;;;;5028595;28;20072;-72
2023/08/14 02:40:27;;;;;;;4.10;1.83;;;23.80;90.00;;;;;;5032439;28;20051;-64
2023/08/14 02:42:57;;;;;;;3.28;1.77;;;24.10;90.00;;;;;;5029847;28;20474;-67
2023/08/14 02:45:23;;;;;;;2.75;1.48;;;23.90;90.00;;;;;;5051396;28;20779;-66
2023/08/14 02:47:49;;;;;;;4.75;1.70;;;23.80;89.80;;;;;;5047345;28;20126;-64
2023/08/14 02:50:14;;;;;;;2.65;1.52;;;24.00;91.30;;;;;;5049145;28;20041;-67
2023/08/14 02:52:40;;;;;;;3.70;1.80;;;24.00;89.80;;;;;;5048953;28;20498;-65
2023/08/14 02:55:06;;;;;;;3.92;1.90;;;23.80;91.10;;;;;;5050551;28;20182;-72
2023/08/14 02:57:32;;;;;;;3.70;1.52;;;23.60;89.30;;;;;;5033110;28;20041;-70
2023/08/14 02:59:58;;;;;;;3.03;1.52;;;23.70;89.50;;;;;;5051055;28;20107;-67
2023/08/14 03:02:23;;;;;;;4.55;1.80;;;22.50;88.90;;;;;;5051267;28;20118;-69
2023/08/14 03:04:50;;;;;;;4.35;1.65;;;23.80;89.70;;;;;;5041012;28;20036;-69
2023/08/14 03:07:15;;;;;;;3.10;1.70;;;23.70;89.60;;;;;;5023248;28;20080;-64
2023/08/14 03:09:41;;;;;;;3.75;1.80;;;23.80;89.80;;;;;;5055542;28;20454;-66
2023/08/14 03:12:07;;;;;;;3.05;1.60;;;23.80;89.70;;;;;;5055428;28;20048;-68
2023/08/14 03:14:33;;;;;;;3.95;1.80;;;23.80;91.30;;;;;;5049311;28;20127;-69
2023/08/14 03:16:58;;;;;;;3.50;1.70;;;23.80;89.50;;;;;;5049311;28;20117;-63
2023/08/14 03:19:24;;;;;;;3.22;1.65;;;23.70;89.60;;;;;;5051511;28;20075;-70
2023/08/14 03:21:53;;;;;;;3.22;1.60;;;23.70;89.60;;;;;;5050244;28;20102;-68
2023/08/14 03:24:19;;;;;;;3.35;1.80;;;23.70;88.50;;;;;;5032190;28;20049;-66
2023/08/14 03:26:45;;;;;;;3.20;1.63;;;23.70;89.50;;;;;;5048687;28;20049;-65
2023/08/14 03:29:11;;;;;;;4.38;1.60;;;23.60;89.60;;;;;;5050311;28;20121;-63
2023/08/14 03:31:36;;;;;;;3.30;1.73;;;24.10;89.80;;;;;;5046669;28;20481;-67
2023/08/14 03:34:02;;;;;;;3.72;1.40;;;23.80;89.60;;;;;;5033758;28;20153;-69
2023/08/14 03:36:28;;;;;;;3.55;1.50;;;23.90;89.40;;;;;;5058758;28;20045;-66
2023/08/14 03:38:54;;;;;;;3.75;1.50;;;23.90;89.60;;;;;;5047978;28;20045;-61
2023/08/14 03:41:19;;;;;;;2.63;1.50;;;23.70;89.40;;;;;;5047689;28;20090;-64
2023/08/14 03:43:45;;;;;;;3.30;1.52;;;23.60;89.50;;;;;;5050340;28;20406;-66
2023/08/14 03:46:11;;;;;;;2.47;1.45;;;23.80;89.60;;;;;;5008043;28;20038;-63
2023/08/14 03:48:37;;;;;;;2.72;1.60;;;23.40;90.90;;;;;;5016282;28;20041;-69
2023/08/14 03:51:03;;;;;;;3.65;1.45;;;23.60;89.40;;;;;;5049921;28;20079;-63
2023/08/14 03:53:30;;;;;;;3.55;1.83;;;23.70;89.50;;;;;;5038553;28;20037;-62
2023/08/14 03:55:55;;;;;;;3.33;1.70;;;23.70;89.70;;;;;;5046767;28;20041;-68
2023/08/14 03:58:21;;;;;;;2.50;1.30;;;23.50;89.20;;;;;;5047640;28;20040;-65
2023/08/14 04:00:47;;;;;;;4.75;1.60;;;23.90;89.40;;;;;;5043503;28;20380;-67
2023/08/14 04:03:13;;;;;;;4.28;1.65;;;23.70;89.50;;;;;;5040895;28;20051;-66
2023/08/14 04:05:39;;;;;;;2.55;1.40;;;23.60;89.40;;;;;;5049533;28;20041;-65
2023/08/14 04:08:08;;;;;;;4.28;1.70;;;23.80;89.70;;;;;;5041612;28;20099;-66
2023/08/14 04:10:34;;;;;;;4.00;1.45;;;23.60;89.60;;;;;;5049044;28;20049;-66
2023/08/14 04:13:00;;;;;;;3.55;1.60;;;23.80;91.10;;;;;;5046054;28;22049;-71
2023/08/14 04:15:26;;;;;;;3.97;1.60;;;23.50;89.30;;;;;;5043240;28;20052;-71
2023/08/14 04:17:52;;;;;;;3.17;1.60;;;23.60;89.30;;;;;;5038485;28;20099;-62
2023/08/14 04:20:17;;;;;;;5.15;1.60;;;23.60;90.90;;;;;;5036552;28;20107;-66
2023/08/14 04:22:43;;;;;;;3.75;1.40;;;23.80;89.30;;;;;;5031682;28;20042;-66
2023/08/14 04:25:09;;;;;;;2.78;1.65;;;23.50;89.20;;;;;;5041997;28;20125;-63
2023/08/14 04:27:36;;;;;;;4.55;1.70;;;23.60;90.90;;;;;;5047017;28;20128;-65
2023/08/14 04:30:03;;;;;;;2.85;1.73;;;23.60;89.40;;;;;;5045119;28;20380;-66
2023/08/14 04:32:29;;;;;;;5.35;1.80;;;23.70;89.20;;;;;;5030795;28;20078;-62
2023/08/14 04:34:55;;;;;;;3.60;1.67;;;23.70;91.10;;;;;;5037302;28;20041;-63
2023/08/14 04:37:21;;;;;;;2.88;1.50;;;23.40;89.00;;;;;;5058755;28;20072;-63
2023/08/14 04:39:46;;;;;;;3.80;1.70;;;23.50;88.90;;;;;;5025176;28;20114;-62
2023/08/14 04:42:12;;;;;;;2.80;1.60;;;23.60;91.00;;;;;;5030893;28;20053;-61
2023/08/14 04:44:38;;;;;;;3.47;1.88;;;23.90;89.30;;;;;;5043612;28;20047;-66
2023/08/14 04:47:04;;;;;;;3.65;1.67;;;23.30;90.80;;;;;;5055524;28;20102;-63
2023/08/14 04:49:29;;;;;;;4.43;1.60;;;24.00;89.00;;;;;;5032227;28;20049;-63
2023/08/14 04:51:55;;;;;;;4.40;1.60;;;23.60;89.00;;;;;;5032325;28;20107;-64
2023/08/14 04:54:21;;;;;;;3.22;1.65;;;23.60;88.70;;;;;;5032676;28;20064;-65
2023/08/14 04:56:47;;;;;;;2.92;1.63;;;23.60;90.80;;;;;;5016327;28;20403;-64
2023/08/14 04:59:12;;;;;;;3.58;1.63;;;23.80;88.80;;;;;;5020327;28;20202;-62
2023/08/14 05:01:38;;;;;;;2.95;1.60;;;23.40;88.50;;;;;;5024629;28;20060;-62
2023/08/14 05:04:04;;;;;;;4.80;1.60;;;23.80;88.60;;;;;;5031539;28;20048;-62
2023/08/14 05:06:30;;;;;;;3.58;1.70;;;23.80;88.50;;;;;;5043841;28;20041;-61
2023/08/14 05:08:55;;;;;;;5.22;1.90;;;23.90;88.50;;;;;;5056013;28;20155;-63
2023/08/14 05:11:21;;;;;;;3.50;1.70;;;23.60;88.30;;;;;;5034305;28;20080;-62
2023/08/14 05:13:47;;;;;;;4.85;1.80;;;24.00;88.20;;;;;;5019527;28;20129;-61
2023/08/14 05:16:13;;;;;;;2.65;1.60;;;23.90;88.20;;;;;;5031921;28;20168;-63
2023/08/14 05:18:39;;;;;;;2.58;1.70;;;24.20;88.20;;;;;;5016941;28;20136;-63
2023/08/14 05:21:05;;;;;;;2.95;1.63;;;23.90;87.70;;;;;;5035769;28;20044;-63
2023/08/14 05:23:31;;;;;;;3.42;1.77;;;24.10;87.70;;;;;;5033352;28;20196;-62
2023/08/14 05:25:56;;;;;;;3.90;1.73;;;24.10;87.60;;;;;;5026086;28;20171;-65
2023/08/14 05:28:22;;;;;;;3.95;2.00;;;24.30;87.80;;;;;;5033033;28;20128;-61
2023/08/14 05:30:48;;;;;;;3.97;1.88;;;24.30;87.60;;;;;;5034207;28;20092;-62
2023/08/14 05:33:13;;;;;;;4.10;1.80;;;24.40;87.60;;;;;;5034736;28;20046;-62
2023/08/14 05:35:39;;;;;;;2.72;1.65;;;24.40;87.50;;;;;;5035263;28;20411;-64
2023/08/14 05:38:05;;;;;;;3.03;1.55;;;24.30;87.10;;;;;;5030263;28;20041;-67
2023/08/14 05:40:31;;;;;;;2.92;1.80;;;24.20;87.30;;;;;;5015045;28;20045;-64
2023/08/14 05:43:10;;;;;;;2.92;1.60;;;24.10;87.10;;;;;;5016305;28;20078;-64
2023/08/14 05:45:37;;;;;;;2.63;1.38;;;24.40;86.50;;;;;;5012731;28;20112;-64
2023/08/14 05:48:05;;;;;;;3.30;1.50;;;24.30;87.40;;;;;;5033130;28;20041;-63
2023/08/14 05:50:30;;;;;;;3.78;1.50;;;24.50;87.40;;;;;;5032780;28;20045;-66
2023/08/14 05:52:59;;;;;;;3.25;1.60;;;24.70;86.90;;;;;;5035648;28;20037;-68
2023/08/14 05:55:25;;;;;;;3.25;1.50;;;24.60;86.90;;;;;;5032642;28;20115;-61
2023/08/14 05:57:51;;;;;;;2.53;1.70;;;24.50;86.50;;;;;;5030932;28;20049;-63
2023/08/14 06:00:17;;;;;;;3.78;1.58;;;24.80;86.50;;;;;;5014697;28;20116;-69
2023/08/14 06:02:44;;;;;;;2.95;1.60;;;24.60;86.40;;;;;;5032169;28;20077;-61
2023/08/14 06:05:10;;;;;;;2.97;1.65;;;24.60;86.50;;;;;;5032191;28;20098;-69
2023/08/14 06:07:36;;;;;;;2.40;1.25;;;24.80;89.60;;;;;;5032738;28;20108;-69
2023/08/14 06:10:04;;;;;;;5.30;1.42;;;25.10;86.40;;;;;;5029539;28;20052;-62
2023/08/14 06:12:30;;;;;;;4.28;1.42;;;25.10;86.30;;;;;;5044595;28;20053;-67
2023/08/14 06:14:56;;;;;;;3.22;1.42;;;24.90;86.50;;;;;;5050837;28;20815;-65
2023/08/14 06:17:22;;;;;;;4.53;1.63;;;24.80;86.20;;;;;;5052256;28;20033;-62
2023/08/14 06:19:48;;;;;;;3.08;1.50;;;24.60;85.90;;;;;;5051310;28;20490;-62
2023/08/14 06:22:15;;;;;;;3.50;1.60;;;24.80;86.10;;;;;;5029911;28;20049;-63
2023/08/14 06:24:41;;;;;;;3.97;1.52;;;25.00;86.30;;;;;;5036135;28;20127;-76
2023/08/14 06:27:07;;;;;;;3.35;1.70;;;25.20;86.00;;;;;;5035274;28;20048;-67
2023/08/14 06:29:33;;;;;;;6.05;2.38;;;25.10;86.00;;;;;;5030508;28;20502;-69
2023/08/14 06:32:00;;;;;;;4.80;1.92;;;24.80;85.80;;;;;;5034149;28;20450;-65
2023/08/14 06:34:29;;;;;;;6.50;2.20;;;24.80;86.10;;;;;;5050964;28;20045;-77
2023/08/14 06:36:55;;;;;;;5.35;2.20;;;24.80;84.80;;;;;;5017192;28;20131;-63
2023/08/14 06:39:21;;;;;;;4.15;2.63;;;25.00;86.20;;;;;;5053988;28;20068;-63
2023/08/14 06:41:47;;;;;;;4.68;2.28;;;24.60;86.00;;;;;;5035037;28;20574;-73
2023/08/14 06:44:12;;;;;;;6.82;3.97;;;24.70;86.10;;;;;;5051351;28;20068;-78
2023/08/14 06:46:38;;;;;;;6.97;3.75;;;24.70;86.00;;;;;;5037013;28;20048;-66
2023/08/14 06:49:04;;;;;;;6.30;3.97;;;24.60;88.80;;;;;;5043030;28;20111;-67
2023/08/14 06:51:31;;;;;;;5.97;3.47;;;24.60;86.00;;;;;;5035334;28;20045;-62
2023/08/14 06:53:57;;;;;;;6.88;3.97;;;24.20;89.00;;;;;;5051582;28;20163;-73
2023/08/14 06:56:23;;;;;;;7.45;3.72;;;24.60;86.40;;;;;;5050960;28;20091;-64
2023/08/14 06:58:48;;;;;;;6.90;4.00;;;24.50;86.70;;;;;;5055580;28;20453;-66
2023/08/14 07:01:14;;;;;;;6.35;3.65;;;24.10;86.60;;;;;;5050863;28;20041;-73
2023/08/14 07:03:40;;;;;;;7.18;3.70;;;24.40;86.90;;;;;;5040919;28;20048;-69
2023/08/14 07:06:06;;;;;;;8.55;3.60;;;24.20;86.90;;;;;;5032513;28;20080;-63
2023/08/14 07:08:32;;;;;;;6.30;3.53;;;24.30;87.20;;;;;;5047756;28;20099;-64
2023/08/14 07:10:58;;;;;;;7.20;3.58;;;24.10;87.10;;;;;;5046656;28;20770;-70
2023/08/14 07:13:23;;;;;;;5.85;3.50;;;24.40;87.10;;;;;;5025305;28;20071;-61
2023/08/14 07:15:49;;;;;;;6.40;3.63;;;24.00;87.40;;;;;;5026185;28;20360;-73
2023/08/14 07:18:18;;;;;;;5.55;3.00;;;24.10;87.50;;;;;;5023313;28;20080;-78
2023/08/14 07:20:46;;;;;;;6.00;3.28;;;24.00;88.00;;;;;;5035188;28;20052;-70
2023/08/14 07:23:14;;;;;;;9.27;3.70;;;23.90;88.00;;;;;;5044656;28;20111;-74
2023/08/14 07:25:40;;;;;;;8.57;3.80;;;24.20;88.20;;;;;;5028172;28;20120;-61
2023/08/14 07:28:06;;;;;;;9.45;4.25;;;24.00;88.00;;;;;;5041417;28;20136;-64
2023/08/14 07:30:31;;;;;;;9.13;4.05;;;24.00;88.40;;;;;;5042657;28;20526;-61
2023/08/14 07:32:57;;;;;;;6.55;4.00;;;23.90;88.50;;;;;;5048484;28;20398;-67
2023/08/14 07:35:23;;;;;;;7.07;3.67;;;23.80;91.10;;;;;;5048437;28;20051;-82
2023/08/14 07:37:49;;;;;;;6.15;4.03;;;23.60;91.00;;;;;;5037512;28;20111;-79
2023/08/14 07:40:14;;;;;;;6.95;3.78;;;23.80;89.60;;;;;;5048741;28;20059;-72
2023/08/14 07:42:40;;;;;;;6.07;3.72;;;23.80;89.80;;;;;;5052935;28;20048;-66
2023/08/14 07:45:06;;;;;;;7.68;3.80;;;23.70;90.00;;;;;;5035389;28;20041;-73
2023/08/14 07:47:32;;;;;;;7.88;4.13;;;23.60;89.80;;;;;;5032779;28;20041;-68
2023/08/14 07:49:58;;;;;;;6.18;3.90;;;23.30;91.70;;;;;;5032145;28;20037;-66
2023/08/14 07:52:24;;;;;;;7.03;3.80;;;23.60;91.60;;;;;;5017834;28;20073;-65
2023/08/14 07:54:50;;;;;;;10.82;4.20;;;23.60;90.30;;;;;;5025553;28;20176;-61
2023/08/14 07:57:16;;;;;;;9.85;4.20;;;23.90;90.20;;;;;;5031859;28;20172;-64
2023/08/14 07:59:42;;;;;;;8.90;3.88;;;23.80;91.50;;;;;;5013797;28;20041;-63
2023/08/14 08:02:07;;;;;;;8.00;3.80;;;23.90;90.20;;;;;;5028969;28;20510;-63
2023/08/14 08:04:36;;;;;;;6.07;3.05;;;23.80;90.00;;;;;;5028995;28;20089;-60
2023/08/14 08:07:05;;;;;;;5.72;3.28;;;24.30;90.00;;;;;;5031593;28;20045;-60
2023/08/14 08:09:31;;;;;;;8.15;3.53;;;23.90;89.40;;;;;;5029630;28;20045;-74
2023/08/14 08:11:57;;;;;;;6.20;3.35;;;24.10;89.30;;;;;;5039101;28;20509;-67
2023/08/14 08:14:23;;;;;;;9.52;3.67;;;24.40;89.90;;;;;;5049966;28;20048;-80
2023/08/14 08:16:49;;;;;;;7.47;3.70;;;24.60;89.00;;;;;;5050740;28;20041;-75
2023/08/14 08:19:15;;;;;;;7.43;3.47;;;24.60;88.60;;;;;;5048817;28;20582;-65
2023/08/14 08:21:41;;;;;;;8.63;3.28;;;24.40;88.20;;;;;;5050853;28;20064;-60
2023/08/14 08:24:07;;;;;;;7.28;3.13;;;24.50;88.20;;;;;;5050380;28;20045;-63
2023/08/14 08:26:33;;;;;;;7.45;3.28;;;24.60;88.40;;;;;;5031406;28;20446;-68
2023/08/14 08:28:58;;;;;;;5.72;2.88;;;24.70;88.40;;;;;;5040329;28;20052;-80
2023/08/14 08:31:24;;;;;;;6.13;2.97;;;24.70;88.40;;;;;;5043633;28;20459;-79
2023/08/14 08:33:50;;;;;;;7.50;2.70;;;24.80;88.00;;;;;;5046525;28;20037;-75
2023/08/14 08:36:19;;;;;;;6.68;2.70;;;24.70;88.00;;;;;;5057327;28;20063;-83
2023/08/14 08:38:45;;;;;;;6.90;2.97;;;24.60;86.80;;;;;;5041398;28;20096;-59
2023/08/14 08:41:12;;;;;;;4.78;2.35;;;24.80;87.80;;;;;;5052413;28;20398;-60
2023/08/14 08:43:39;;;;;;;5.25;2.38;;;24.80;87.60;;;;;;5050257;28;20048;-72
2023/08/14 08:46:08;;;;;;;6.85;2.63;;;25.00;87.50;;;;;;5053779;28;20448;-66
2023/08/14 08:48:34;;;;;;;7.88;2.92;;;24.90;89.50;;;;;;5031046;28;20103;-73
2023/08/14 08:51:00;;;;;;;7.78;2.70;;;24.80;86.70;;;;;;5044466;28;20472;-66
2023/08/14 08:53:25;;;;;;;6.13;2.88;;;24.90;86.80;;;;;;5044742;28;20061;-72
2023/08/14 08:55:51;;;;;;;6.47;2.53;;;25.00;86.60;;;;;;5030960;28;20103;-61
2023/08/14 08:58:18;;;;;;;5.50;2.35;;;24.80;86.40;;;;;;5029100;28;20095;-60
2023/08/14 09:00:44;;;;;;;6.40;2.60;;;25.20;86.50;;;;;;5041912;28;20407;-60
2023/08/14 09:03:12;;;;;;;9.32;2.75;;;25.10;85.30;;;;;;5041463;28;20056;-79
2023/08/14 09:05:39;;;;;;;8.07;2.80;;;25.40;86.10;;;;;;5031912;28;20056;-67
2023/08/14 09:08:04;;;;;;;8.75;2.50;;;25.30;85.70;;;;;;5026055;28;20041;-60
2023/08/14 09:10:30;;;;;;;6.85;2.80;;;25.40;85.20;;;;;;5048662;28;20053;-64
2023/08/14 09:12:56;;;;;;;7.53;2.72;;;25.60;85.10;;;;;;5040110;28;20068;-59
2023/08/14 09:15:25;;;;;;;9.48;2.92;;;25.70;84.60;;;;;;5049487;28;20045;-60
2023/08/14 09:17:51;;;;;;;5.70;2.47;;;25.70;84.60;;;;;;5051241;28;20072;-77
2023/08/14 09:20:20;;;;;;;7.65;2.67;;;25.60;84.90;;;;;;5053754;28;20499;-76
2023/08/14 09:22:46;;;;;;;7.75;2.97;;;25.80;84.70;;;;;;5045429;28;20136;-76
2023/08/14 09:25:13;;;;;;;5.70;2.60;;;25.70;84.50;;;;;;5040624;28;20041;-67
2023/08/14 09:27:39;;;;;;;6.13;2.80;;;25.60;84.40;;;;;;5047814;28;20371;-68
2023/08/14 09:30:08;;;;;;;6.32;3.00;;;25.80;84.80;;;;;;5025736;28;20148;-74
2023/08/14 09:32:34;;;;;;;5.93;2.70;;;25.80;83.80;;;;;;5050978;28;20145;-70
2023/08/14 09:35:00;;;;;;;6.13;2.97;;;25.80;84.00;;;;;;5049901;28;20510;-63
2023/08/14 09:37:27;;;;;;;11.82;2.95;;;25.80;84.20;;;;;;5039084;28;20045;-75
2023/08/14 09:40:16;;;;;;;8.73;3.05;;;25.50;83.90;;;;;;5049370;28;20396;-74
2023/08/14 09:42:45;;;;;;;8.63;3.22;;;25.80;82.70;;;;;;5044189;28;20041;-72
2023/08/14 09:45:12;;;;;;;6.50;3.30;;;25.50;83.90;;;;;;5048900;28;20368;-74
2023/08/14 09:47:39;;;;;;;7.32;2.88;;;25.60;83.80;;;;;;5037486;28;20431;-76
2023/08/14 09:50:06;;;;;;;6.63;2.88;;;25.70;83.80;;;;;;5017895;28;20056;-64
2023/08/14 09:52:32;;;;;;;6.20;2.50;;;25.80;83.10;;;;;;5049801;28;20482;-62
2023/08/14 09:54:59;;;;;;;7.57;2.75;;;26.00;83.80;;;;;;5048130;28;20103;-60
2023/08/14 09:57:25;;;;;;;10.93;2.92;;;25.60;83.30;;;;;;5049541;28;20498;-62
2023/08/14 09:59:51;;;;;;;8.10;3.05;;;26.10;83.50;;;;;;5052313;28;20041;-62
2023/08/14 10:02:17;;;;;;;6.25;2.53;;;26.00;83.20;;;;;;5047361;28;20500;-61
2023/08/14 10:04:46;;;;;;;6.80;3.05;;;26.20;83.00;;;;;;5031393;28;20049;-69
2023/08/14 10:07:17;;;;;;;6.85;2.85;;;26.00;83.20;;;;;;5049686;28;20049;-73
2023/08/14 10:09:51;;;;;;;7.47;2.85;;;25.80;82.80;;;;;;5026260;28;20063;-61
2023/08/14 10:12:19;;;;;;;5.88;2.63;;;26.00;82.60;;;;;;5052738;28;20045;-60
2023/08/14 10:14:47;;;;;;;5.63;2.58;;;26.30;82.60;;;;;;5032923;28;20063;-62
2023/08/14 10:17:18;;;;;;;8.32;2.40;;;26.20;82.40;;;;;;5054750;28;20052;-60
2023/08/14 10:19:44;;;;;;;6.18;2.67;;;25.90;82.20;;;;;;5040043;28;20041;-59
2023/08/14 10:22:09;;;;;;;7.93;2.80;;;26.10;81.60;;;;;;5049479;28;20501;-64
2023/08/14 10:24:36;;;;;;;11.50;2.92;;;26.00;81.30;;;;;;5033795;28;20099;-61
2023/08/14 10:27:02;;;;;;;7.20;2.67;;;26.30;81.80;;;;;;5018897;28;20091;-61
2023/08/14 10:29:28;;;;;;;9.10;2.47;;;26.30;81.40;;;;;;5016861;28;20076;-60
2023/08/14 10:31:54;;;;;;;5.70;2.60;;;26.20;81.30;;;;;;5032964;28;20414;-60
2023/08/14 10:34:20;;;;;;;5.22;2.30;;;26.10;81.00;;;;;;5035044;28;20087;-63
2023/08/14 10:36:52;;;;;;;6.85;2.38;;;26.20;81.20;;;;;;5031171;28;20042;-63
2023/08/14 10:39:18;;;;;;;4.90;2.33;;;26.10;79.80;;;;;;5048436;28;20131;-76
2023/08/14 10:41:45;;;;;;;7.80;2.60;;;26.50;81.10;;;;;;5047112;28;20053;-64
2023/08/14 10:44:11;;;;;;;6.03;2.58;;;26.30;80.60;;;;;;5051437;28;20091;-76
2023/08/14 10:46:43;;;;;;;5.43;2.22;;;26.50;81.10;;;;;;5032830;28;20124;-63
2023/08/14 10:49:12;;;;;;;5.65;2.47;;;26.40;80.70;;;;;;5031634;28;20040;-73
2023/08/14 10:51:42;;;;;;;7.93;2.70;;;26.30;80.60;;;;;;5018963;28;20447;-66
2023/08/14 10:54:13;;;;;;;4.97;2.15;;;26.50;79.70;;;;;;5049566;28;20124;-61
2023/08/14 10:56:48;;;;;;;6.68;2.55;;;26.30;81.20;;;;;;5050053;28;20527;-64
2023/08/14 10:59:26;;;;;;;4.88;2.35;;;26.30;81.20;;;;;;5046550;28;20041;-62
2023/08/14 11:02:06;;;;;;;4.60;2.20;;;26.60;81.50;;;;;;5044756;28;20629;-71
2023/08/14 11:04:35;;;;;;;5.18;2.35;;;26.50;81.10;;;;;;5047464;28;20618;-64
2023/08/14 11:07:02;;;;;;;5.72;2.30;;;26.10;80.30;;;;;;5053410;28;20040;-69
2023/08/14 11:09:31;;;;;;;5.20;2.30;;;26.40;80.70;;;;;;5053593;28;20053;-78
2023/08/14 11:11:57;;;;;;;5.28;2.38;;;26.50;81.00;;;;;;5034844;28;20057;-79
2023/08/14 11:14:23;;;;;;;6.50;2.10;;;26.40;80.10;;;;;;5031617;28;20497;-65
2023/08/14 11:16:49;;;;;;;8.45;2.50;;;26.00;80.10;;;;;;5052511;28;20045;-75
2023/08/14 11:19:17;;;;;;;7.20;2.47;;;26.30;80.50;;;;;;5033456;28;20148;-78
2023/08/14 11:21:46;;;;;;;6.88;2.28;;;26.50;80.50;;;;;;5053995;28;20076;-68
2023/08/14 11:24:13;;;;;;;8.15;2.35;;;26.50;80.30;;;;;;5049108;28;20115;-75
2023/08/14 11:26:39;;;;;;;6.53;2.50;;;26.40;79.30;;;;;;5052909;28;20950;-76
2023/08/14 11:29:05;;;;;;;6.43;2.40;;;26.50;79.50;;;;;;5034174;28;20132;-65
2023/08/14 11:31:30;;;;;;;8.48;2.55;;;26.60;79.40;;;;;;5052892;28;20049;-80
2023/08/14 11:33:56;;;;;;;9.43;3.20;;;26.60;79.30;;;;;;5048499;28;20569;-63
2023/08/14 11:36:22;;;;;;;4.63;2.00;;;26.40;79.10;;;;;;5048924;28;20048;-68
2023/08/14 11:38:50;;;;;;;6.53;2.35;;;26.70;79.70;;;;;;5044441;28;20049;-74
2023/08/14 11:41:16;;;;;;;7.80;2.80;;;26.60;79.50;;;;;;5069106;28;20036;-75
2023/08/14 11:43:42;;;;;;;5.78;2.20;;;26.50;79.10;;;;;;5047862;28;20041;-62
2023/08/14 11:46:09;;;;;;;5.38;2.17;;;26.20;78.80;;;;;;5031940;28;20179;-63
2023/08/14 11:48:36;;;;;;;6.57;2.60;;;26.30;79.10;;;;;;5037278;28;20052;-76
2023/08/14 11:51:02;;;;;;;8.75;2.67;;;26.40;79.40;;;;;;5035126;28;20037;-74
2023/08/14 11:53:28;;;;;;;5.22;2.60;;;26.30;79.20;;;;;;5044009;28;20048;-62
2023/08/14 11:55:54;;;;;;;5.38;2.15;;;26.30;79.60;;;;;;5013828;28;20693;-71
2023/08/14 11:58:20;;;;;;;7.57;2.30;;;26.60;79.40;;;;;;5045517;28;20072;-70
2023/08/14 12:00:50;;;;;;;6.15;2.50;;;26.50;79.30;;;;;;5051739;28;20069;-77
2023/08/14 12:03:16;;;;;;;6.32;2.70;;;26.70;79.80;;;;;;5049841;28;20045;-68
2023/08/14 12:05:44;;;;;;;4.50;2.30;;;26.50;79.60;;;;;;5034563;28;20044;-72
2023/08/14 12:08:11;;;;;;;5.32;2.40;;;26.40;79.40;;;;;;5031490;28;20482;-63
2023/08/14 12:10:38;;;;;;;8.05;2.35;;;26.70;79.20;;;;;;5035603;28;20041;-62
2023/08/14 12:13:04;;;;;;;7.55;2.45;;;26.60;78.80;;;;;;5038332;28;20120;-62
2023/08/14 12:15:31;;;;;;;10.00;2.60;;;27.00;78.40;;;;;;5022873;28;20124;-62
2023/08/14 12:17:56;;;;;;;6.93;2.55;;;26.80;78.70;;;;;;5014614;28;20053;-63
2023/08/14 12:20:22;;;;;;;8.15;2.40;;;26.50;78.30;;;;;;5037884;28;20044;-61
2023/08/14 12:22:49;;;;;;;6.68;2.13;;;26.50;77.70;;;;;;5054445;28;20049;-61
2023/08/14 12:25:18;;;;;;;7.72;2.60;;;27.20;77.90;;;;;;5033095;28;20049;-72
2023/08/14 12:27:44;;;;;;;7.80;2.13;;;26.80;78.40;;;;;;5046692;28;20506;-63
2023/08/14 12:30:10;;;;;;;8.55;2.20;;;26.60;77.50;;;;;;5045992;28;20037;-73
2023/08/14 12:32:36;;;;;;;26.88;3.75;;;26.50;77.30;;;;;;5026561;28;20065;-71
2023/08/14 12:35:02;;;;;;;7.22;2.50;;;26.80;77.70;;;;;;5022823;28;20076;-69
2023/08/14 12:37:28;;;;;;;10.45;2.55;;;26.90;77.30;;;;;;5052481;28;20072;-76
2023/08/14 12:39:55;;;;;;;6.50;2.22;;;26.80;77.00;;;;;;5052015;28;20482;-66
2023/08/14 12:42:21;;;;;;;8.07;2.50;;;26.70;77.20;;;;;;5043292;28;20116;-64